sensor_id;sensor_type;location;lat;lon;timestamp;pressure;altitude;pressure_sealevel;temperature;humidity
10658;BME280;5377;43.276;26.930;2023-08-17T00:01:50;99056.19;;;22.77;100.00
10658;BME280;5377;43.276;26.930;2023-08-17T00:04:17;99080.50;;;22.79;100.00
10658;BME280;5377;43.276;26.930;2023-08-17T00:06:44;99081.31;;;22.79;100.00
10658;BME280;5377;43.276;26.930;2023-08-17T00:09:12;99066.38;;;22.66;100.00
10658;BME280;5377;43.276;26.930;2023-08-17T00:11:39;99081.59;;;22.83;100.00
10658;BME280;5377;43.276;26.930;2023-08-17T00:14:07;99082.69;;;22.77;100.00
10658;BME280;5377;43.276;26.930;2023-08-17T00:16:35;99087.59;;;22.80;100.00
10658;BME280;5377;43.276;26.930;2023-08-17T00:19:02;99081.31;;;22.79;100.00
10658;BME280;5377;43.276;26.930;2023-08-17T00:21:29;99082.13;;;22.80;100.00
10658;BME280;5377;43.276;26.930;2023-08-17T00:23:55;99067.69;;;22.74;100.00
10658;BME280;5377;43.276;26.930;2023-08-17T00:26:22;99075.59;;;22.76;100.00
10658;BME280;5377;43.276;26.930;2023-08-17T00:28:50;99083.03;;;22.70;100.00
10658;BME280;5377;43.276;26.930;2023-08-17T00:31:18;99079.75;;;22.68;100.00
10658;BME280;5377;43.276;26.930;2023-08-17T00:33:45;99083.59;;;22.67;100.00
10658;BME280;5377;43.276;26.930;2023-08-17T00:36:12;99073.19;;;22.69;100.00
10658;BME280;5377;43.276;26.930;2023-08-17T00:38:38;99082.53;;;22.63;100.00
10658;BME280;5377;43.276;26.930;2023-08-17T00:41:05;99084.19;;;22.54;100.00
10658;BME280;5377;43.276;26.930;2023-08-17T00:43:51;99075.47;;;22.52;100.00
10658;BME280;5377;43.276;26.930;2023-08-17T00:46:19;99072.22;;;22.50;100.00
10658;BME280;5377;43.276;26.930;2023-08-17T00:48:48;99071.41;;;22.49;100.00
10658;BME280;5377;43.276;26.930;2023-08-17T00:51:16;99080.69;;;22.48;100.00
10658;BME280;5377;43.276;26.930;2023-08-17T00:53:45;99077.72;;;22.45;100.00
10658;BME280;5377;43.276;26.930;2023-08-17T00:56:12;99045.88;;;22.30;100.00
10658;BME280;5377;43.276;26.930;2023-08-17T00:58:39;99067.59;;;22.45;100.00
10658;BME280;5377;43.276;26.930;2023-08-17T01:01:06;99061.94;;;22.36;100.00
10658;BME280;5377;43.276;26.930;2023-08-17T01:03:34;99058.38;;;22.36;100.00
10658;BME280;5377;43.276;26.930;2023-08-17T01:06:01;99054.91;;;22.25;100.00
10658;BME280;5377;43.276;26.930;2023-08-17T01:08:29;99061.44;;;22.29;100.00
10658;BME280;5377;43.276;26.930;2023-08-17T01:11:01;99042.34;;;22.19;100.00
10658;BME280;5377;43.276;26.930;2023-08-17T01:13:34;99064.22;;;22.14;100.00
10658;BME280;5377;43.276;26.930;2023-08-17T01:16:05;99066.91;;;22.24;100.00
10658;BME280;5377;43.276;26.930;2023-08-17T01:18:35;99062.56;;;22.23;100.00
10658;BME280;5377;43.276;26.930;2023-08-17T01:21:05;99061.47;;;22.19;100.00
10658;BME280;5377;43.276;26.930;2023-08-17T01:23:33;99061.75;;;22.23;100.00
10658;BME280;5377;43.276;26.930;2023-08-17T01:26:00;99055.75;;;22.21;100.00
10658;BME280;5377;43.276;26.930;2023-08-17T01:28:28;99050.00;;;22.22;100.00
10658;BME280;5377;43.276;26.930;2023-08-17T01:30:58;99052.72;;;22.22;100.00
10658;BME280;5377;43.276;26.930;2023-08-17T01:33:29;99046.25;;;22.03;100.00
10658;BME280;5377;43.276;26.930;2023-08-17T01:36:04;99046.78;;;22.10;100.00
10658;BME280;5377;43.276;26.930;2023-08-17T01:38:34;99046.78;;;22.10;100.00
10658;BME280;5377;43.276;26.930;2023-08-17T01:41:02;99054.44;;;22.08;100.00
10658;BME280;5377;43.276;26.930;2023-08-17T01:43:30;98936.09;;;21.34;100.00
10658;BME280;5377;43.276;26.930;2023-08-17T01:45:59;99052.78;;;22.07;100.00
10658;BME280;5377;43.276;26.930;2023-08-17T01:48:26;99058.75;;;22.14;100.00
10658;BME280;5377;43.276;26.930;2023-08-17T01:50:52;99053.84;;;22.11;100.00
10658;BME280;5377;43.276;26.930;2023-08-17T01:53:19;99061.78;;;22.02;100.00
10658;BME280;5377;43.276;26.930;2023-08-17T01:55:47;99051.72;;;21.98;100.00
10658;BME280;5377;43.276;26.930;2023-08-17T01:58:14;99058.25;;;22.07;100.00
10658;BME280;5377;43.276;26.930;2023-08-17T02:00:41;99058.53;;;22.05;100.00
10658;BME280;5377;43.276;26.930;2023-08-17T02:03:08;99057.72;;;22.05;100.00
10658;BME280;5377;43.276;26.930;2023-08-17T02:05:35;99055.50;;;22.12;100.00
10658;BME280;5377;43.276;26.930;2023-08-17T02:08:02;99056.91;;;22.04;100.00
10658;BME280;5377;43.276;26.930;2023-08-17T02:10:28;98960.03;;;21.42;100.00
10658;BME280;5377;43.276;26.930;2023-08-17T02:12:57;99060.16;;;22.06;100.00
10658;BME280;5377;43.276;26.930;2023-08-17T02:15:23;99064.78;;;22.01;100.00
10658;BME280;5377;43.276;26.930;2023-08-17T02:17:50;99048.22;;;21.77;100.00
10658;BME280;5377;43.276;26.930;2023-08-17T02:20:17;99060.22;;;21.81;100.00
10658;BME280;5377;43.276;26.930;2023-08-17T02:22:44;99069.78;;;21.73;100.00
10658;BME280;5377;43.276;26.930;2023-08-17T02:25:10;99064.88;;;21.75;100.00
10658;BME280;5377;43.276;26.930;2023-08-17T02:27:37;99061.34;;;21.75;100.00
10658;BME280;5377;43.276;26.930;2023-08-17T02:30:07;99052.88;;;21.71;100.00
10658;BME280;5377;43.276;26.930;2023-08-17T02:32:34;99074.38;;;21.83;100.00
10658;BME280;5377;43.276;26.930;2023-08-17T02:35:00;99071.94;;;21.82;100.00
10658;BME280;5377;43.276;26.930;2023-08-17T02:37:27;99075.78;;;21.70;100.00
10658;BME280;5377;43.276;26.930;2023-08-17T02:39:54;99066.56;;;21.61;100.00
10658;BME280;5377;43.276;26.930;2023-08-17T02:42:21;99073.28;;;21.84;100.00
10658;BME280;5377;43.276;26.930;2023-08-17T02:44:48;99066.47;;;21.82;100.00
10658;BME280;5377;43.276;26.930;2023-08-17T02:47:16;99067.84;;;21.79;100.00
10658;BME280;5377;43.276;26.930;2023-08-17T02:49:43;99070.31;;;21.80;100.00
10658;BME280;5377;43.276;26.930;2023-08-17T02:52:10;99076.03;;;21.79;100.00
10658;BME280;5377;43.276;26.930;2023-08-17T02:54:36;99063.47;;;21.83;100.00
10658;BME280;5377;43.276;26.930;2023-08-17T02:57:03;99064.28;;;21.84;100.00
10658;BME280;5377;43.276;26.930;2023-08-17T03:01:57;99066.22;;;21.78;100.00
10658;BME280;5377;43.276;26.930;2023-08-17T03:04:25;99066.47;;;21.82;100.00
10658;BME280;5377;43.276;26.930;2023-08-17T03:06:52;99057.00;;;21.69;100.00
10658;BME280;5377;43.276;26.930;2023-08-17T03:09:18;99065.38;;;21.83;100.00
10658;BME280;5377;43.276;26.930;2023-08-17T03:11:45;99055.03;;;21.79;100.00
10658;BME280;5377;43.276;26.930;2023-08-17T03:14:12;99056.94;;;21.79;100.00
10658;BME280;5377;43.276;26.930;2023-08-17T03:16:39;99070.03;;;21.77;100.00
10658;BME280;5377;43.276;26.930;2023-08-17T03:19:06;99069.50;;;21.75;100.00
10658;BME280;5377;43.276;26.930;2023-08-17T03:21:38;99047.22;;;21.58;100.00
10658;BME280;5377;43.276;26.930;2023-08-17T03:24:05;99069.22;;;21.76;100.00
10658;BME280;5377;43.276;26.930;2023-08-17T03:26:32;99074.69;;;21.76;100.00
10658;BME280;5377;43.276;26.930;2023-08-17T03:28:59;99058.31;;;21.76;100.00
10658;BME280;5377;43.276;26.930;2023-08-17T03:31:26;99055.63;;;21.71;100.00
10658;BME280;5377;43.276;26.930;2023-08-17T03:33:53;99069.22;;;21.82;100.00
10658;BME280;5377;43.276;26.930;2023-08-17T03:36:20;99076.59;;;21.86;100.00
10658;BME280;5377;43.276;26.930;2023-08-17T03:38:48;99072.47;;;21.84;100.00
10658;BME280;5377;43.276;26.930;2023-08-17T03:41:15;99069.50;;;21.75;100.00
10658;BME280;5377;43.276;26.930;2023-08-17T03:43:42;99070.03;;;21.87;100.00
10658;BME280;5377;43.276;26.930;2023-08-17T03:46:09;99042.53;;;21.73;100.00
10658;BME280;5377;43.276;26.930;2023-08-17T03:48:35;99045.50;;;21.82;100.00
10658;BME280;5377;43.276;26.930;2023-08-17T03:51:02;99068.09;;;21.93;100.00
10658;BME280;5377;43.276;26.930;2023-08-17T03:53:29;99070.28;;;21.91;100.00
10658;BME280;5377;43.276;26.930;2023-08-17T03:55:58;99071.34;;;22.00;100.00
10658;BME280;5377;43.276;26.930;2023-08-17T03:58:24;99072.69;;;22.02;100.00
10658;BME280;5377;43.276;26.930;2023-08-17T04:00:53;99065.88;;;22.00;100.00
10658;BME280;5377;43.276;26.930;2023-08-17T04:03:19;99075.44;;;22.02;100.00
10658;BME280;5377;43.276;26.930;2023-08-17T04:05:46;99069.16;;;22.07;100.00
10658;BME280;5377;43.276;26.930;2023-08-17T04:08:13;99080.06;;;22.07;100.00
10658;BME280;5377;43.276;26.930;2023-08-17T04:10:40;99075.13;;;22.14;100.00
10658;BME280;5377;43.276;26.930;2023-08-17T04:13:08;99076.19;;;22.18;100.00
10658;BME280;5377;43.276;26.930;2023-08-17T04:15:35;99071.03;;;22.22;100.00
10658;BME280;5377;43.276;26.930;2023-08-17T04:18:02;99082.19;;;22.25;100.00
10658;BME280;5377;43.276;26.930;2023-08-17T04:20:29;99073.44;;;22.28;100.00
10658;BME280;5377;43.276;26.930;2023-08-17T04:22:56;99081.00;;;22.41;100.00
10658;BME280;5377;43.276;26.930;2023-08-17T04:25:22;99066.81;;;22.39;100.00
10658;BME280;5377;43.276;26.930;2023-08-17T04:27:49;99079.00;;;22.57;100.00
10658;BME280;5377;43.276;26.930;2023-08-17T04:30:17;99072.69;;;22.62;100.00
10658;BME280;5377;43.276;26.930;2023-08-17T04:32:44;99073.41;;;22.78;100.00
10658;BME280;5377;43.276;26.930;2023-08-17T04:35:16;99082.94;;;22.85;100.00
10658;BME280;5377;43.276;26.930;2023-08-17T04:37:42;99086.19;;;22.92;100.00
10658;BME280;5377;43.276;26.930;2023-08-17T04:40:09;99080.09;;;23.00;100.00
10658;BME280;5377;43.276;26.930;2023-08-17T04:42:36;99076.22;;;23.07;100.00
10658;BME280;5377;43.276;26.930;2023-08-17T04:45:04;99079.34;;;23.24;100.00
10658;BME280;5377;43.276;26.930;2023-08-17T04:47:32;99075.91;;;23.42;100.00
10658;BME280;5377;43.276;26.930;2023-08-17T04:49:59;99083.78;;;23.49;100.00
10658;BME280;5377;43.276;26.930;2023-08-17T04:52:25;99081.81;;;23.59;100.00
10658;BME280;5377;43.276;26.930;2023-08-17T04:54:52;99077.31;;;23.69;100.00
10658;BME280;5377;43.276;26.930;2023-08-17T04:57:19;99081.84;;;23.78;100.00
10658;BME280;5377;43.276;26.930;2023-08-17T04:59:46;99017.84;;;23.55;100.00
10658;BME280;5377;43.276;26.930;2023-08-17T05:02:12;99074.69;;;24.06;100.00
10658;BME280;5377;43.276;26.930;2023-08-17T05:04:41;99081.16;;;24.15;100.00
10658;BME280;5377;43.276;26.930;2023-08-17T05:07:07;99046.09;;;24.17;100.00
10658;BME280;5377;43.276;26.930;2023-08-17T05:09:34;99053.91;;;24.48;100.00
10658;BME280;5377;43.276;26.930;2023-08-17T05:12:01;99065.47;;;24.64;100.00
10658;BME280;5377;43.276;26.930;2023-08-17T05:14:28;99060.88;;;24.78;100.00
10658;BME280;5377;43.276;26.930;2023-08-17T05:16:55;99060.91;;;24.92;100.00
10658;BME280;5377;43.276;26.930;2023-08-17T05:19:23;99064.28;;;25.07;100.00
10658;BME280;5377;43.276;26.930;2023-08-17T05:21:51;99047.44;;;25.14;100.00
10658;BME280;5377;43.276;26.930;2023-08-17T05:24:19;99054.25;;;25.30;100.00
10658;BME280;5377;43.276;26.930;2023-08-17T05:26:46;99047.47;;;25.28;100.00
10658;BME280;5377;43.276;26.930;2023-08-17T05:29:16;99024.91;;;25.17;100.00
10658;BME280;5377;43.276;26.930;2023-08-17T05:31:43;99058.28;;;25.52;100.00
10658;BME280;5377;43.276;26.930;2023-08-17T05:34:09;99051.84;;;25.75;100.00
10658;BME280;5377;43.276;26.930;2023-08-17T05:36:36;99019.69;;;25.62;100.00
10658;BME280;5377;43.276;26.930;2023-08-17T05:39:04;99044.91;;;25.91;100.00
10658;BME280;5377;43.276;26.930;2023-08-17T05:41:31;99047.66;;;26.19;100.00
10658;BME280;5377;43.276;26.930;2023-08-17T05:43:58;99053.88;;;26.10;100.00
10658;BME280;5377;43.276;26.930;2023-08-17T05:46:25;99052.13;;;26.15;100.00
10658;BME280;5377;43.276;26.930;2023-08-17T05:48:52;99051.63;;;26.13;100.00
10658;BME280;5377;43.276;26.930;2023-08-17T05:51:18;99039.03;;;26.11;100.00
10658;BME280;5377;43.276;26.930;2023-08-17T05:53:45;99053.31;;;26.36;100.00
10658;BME280;5377;43.276;26.930;2023-08-17T05:56:13;99052.69;;;26.53;100.00
10658;BME280;5377;43.276;26.930;2023-08-17T05:58:40;99042.41;;;26.58;100.00
10658;BME280;5377;43.276;26.930;2023-08-17T06:01:08;99044.41;;;26.66;100.00
10658;BME280;5377;43.276;26.930;2023-08-17T06:03:35;99041.91;;;26.56;100.00
10658;BME280;5377;43.276;26.930;2023-08-17T06:06:02;99034.09;;;26.50;100.00
10658;BME280;5377;43.276;26.930;2023-08-17T06:08:29;99045.53;;;26.65;100.00
10658;BME280;5377;43.276;26.930;2023-08-17T06:10:56;99039.31;;;26.73;100.00
10658;BME280;5377;43.276;26.930;2023-08-17T06:13:24;99042.50;;;26.89;100.00
10658;BME280;5377;43.276;26.930;2023-08-17T06:15:51;99051.09;;;26.74;100.00
10658;BME280;5377;43.276;26.930;2023-08-17T06:18:18;99052.09;;;26.78;100.00
10658;BME280;5377;43.276;26.930;2023-08-17T06:20:45;99056.28;;;26.98;100.00
10658;BME280;5377;43.276;26.930;2023-08-17T06:23:13;99060.69;;;27.21;100.00
10658;BME280;5377;43.276;26.930;2023-08-17T06:25:40;99052.22;;;27.40;100.00
10658;BME280;5377;43.276;26.930;2023-08-17T06:28:07;99054.88;;;27.54;99.70
10658;BME280;5377;43.276;26.930;2023-08-17T06:30:35;99056.19;;;27.56;98.17
10658;BME280;5377;43.276;26.930;2023-08-17T06:33:02;99056.03;;;27.53;98.98
10658;BME280;5377;43.276;26.930;2023-08-17T06:35:30;99061.75;;;27.65;97.60
10658;BME280;5377;43.276;26.930;2023-08-17T06:37:57;99061.22;;;27.85;95.55
10658;BME280;5377;43.276;26.930;2023-08-17T06:40:24;99064.31;;;27.92;96.48
10658;BME280;5377;43.276;26.930;2023-08-17T06:42:51;99051.69;;;27.91;94.79
10658;BME280;5377;43.276;26.930;2023-08-17T06:45:20;99058.06;;;28.18;95.52
10658;BME280;5377;43.276;26.930;2023-08-17T06:47:49;99039.16;;;28.42;93.57
10658;BME280;5377;43.276;26.930;2023-08-17T06:50:16;99050.84;;;28.74;91.21
10658;BME280;5377;43.276;26.930;2023-08-17T06:52:43;99049.94;;;28.87;90.15
10658;BME280;5377;43.276;26.930;2023-08-17T06:55:09;99048.94;;;28.92;88.47
10658;BME280;5377;43.276;26.930;2023-08-17T06:57:36;99045.22;;;28.96;86.54
10658;BME280;5377;43.276;26.930;2023-08-17T07:00:04;99032.38;;;29.17;86.68
10658;BME280;5377;43.276;26.930;2023-08-17T07:02:32;99040.41;;;29.40;84.45
10658;BME280;5377;43.276;26.930;2023-08-17T07:05:01;99052.94;;;29.29;81.82
10658;BME280;5377;43.276;26.930;2023-08-17T07:07:29;99046.31;;;29.21;82.29
10658;BME280;5377;43.276;26.930;2023-08-17T07:09:57;99042.22;;;29.36;79.70
10658;BME280;5377;43.276;26.930;2023-08-17T07:12:23;99040.63;;;29.09;78.30
10658;BME280;5377;43.276;26.930;2023-08-17T07:14:50;99039.16;;;29.11;80.67
10658;BME280;5377;43.276;26.930;2023-08-17T07:17:17;99029.34;;;29.57;78.35
10658;BME280;5377;43.276;26.930;2023-08-17T07:19:44;99023.31;;;29.64;77.20
10658;BME280;5377;43.276;26.930;2023-08-17T07:22:12;99033.28;;;29.47;76.70
10658;BME280;5377;43.276;26.930;2023-08-17T07:24:39;99011.72;;;29.32;76.58
10658;BME280;5377;43.276;26.930;2023-08-17T07:27:06;98972.50;;;29.18;77.24
10658;BME280;5377;43.276;26.930;2023-08-17T07:29:33;99030.69;;;29.80;76.98
10658;BME280;5377;43.276;26.930;2023-08-17T07:31:59;99025.69;;;29.74;75.06
10658;BME280;5377;43.276;26.930;2023-08-17T07:34:27;99031.63;;;29.93;74.57
10658;BME280;5377;43.276;26.930;2023-08-17T07:36:55;99026.06;;;30.31;75.48
10658;BME280;5377;43.276;26.930;2023-08-17T07:39:23;99032.50;;;30.15;71.23
10658;BME280;5377;43.276;26.930;2023-08-17T07:41:50;99019.44;;;30.45;71.51
10658;BME280;5377;43.276;26.930;2023-08-17T07:44:17;99029.84;;;30.48;70.53
10658;BME280;5377;43.276;26.930;2023-08-17T07:46:44;99019.78;;;29.93;72.12
10658;BME280;5377;43.276;26.930;2023-08-17T07:49:11;99032.31;;;29.81;75.49
10658;BME280;5377;43.276;26.930;2023-08-17T07:51:37;99021.06;;;30.46;72.96
10658;BME280;5377;43.276;26.930;2023-08-17T07:54:04;99024.59;;;30.76;70.52
10658;BME280;5377;43.276;26.930;2023-08-17T07:56:33;99018.78;;;30.48;70.60
10658;BME280;5377;43.276;26.930;2023-08-17T07:58:59;99024.31;;;30.27;70.70
10658;BME280;5377;43.276;26.930;2023-08-17T08:01:26;99023.19;;;29.90;71.09
10658;BME280;5377;43.276;26.930;2023-08-17T08:03:53;99020.94;;;30.21;71.95
10658;BME280;5377;43.276;26.930;2023-08-17T08:06:20;99004.38;;;30.63;69.77
10658;BME280;5377;43.276;26.930;2023-08-17T08:08:46;99019.53;;;31.31;68.05
10658;BME280;5377;43.276;26.930;2023-08-17T08:11:13;99019.00;;;32.11;66.30
10658;BME280;5377;43.276;26.930;2023-08-17T08:13:41;99010.75;;;32.51;61.37
10658;BME280;5377;43.276;26.930;2023-08-17T08:16:08;99009.47;;;33.17;58.10
10658;BME280;5377;43.276;26.930;2023-08-17T08:18:35;99013.03;;;33.45;57.42
10658;BME280;5377;43.276;26.930;2023-08-17T08:21:02;99014.38;;;33.83;54.84
10658;BME280;5377;43.276;26.930;2023-08-17T08:23:29;99007.69;;;34.54;52.35
10658;BME280;5377;43.276;26.930;2023-08-17T08:25:56;99011.84;;;33.78;53.33
10658;BME280;5377;43.276;26.930;2023-08-17T08:28:23;99000.50;;;34.34;52.69
10658;BME280;5377;43.276;26.930;2023-08-17T08:30:52;99001.47;;;34.42;51.04
10658;BME280;5377;43.276;26.930;2023-08-17T08:33:19;99003.88;;;34.43;50.91
10658;BME280;5377;43.276;26.930;2023-08-17T08:35:45;99001.97;;;34.66;51.30
10658;BME280;5377;43.276;26.930;2023-08-17T08:38:14;98994.00;;;34.65;50.55
10658;BME280;5377;43.276;26.930;2023-08-17T08:40:40;98990.19;;;35.12;49.07
10658;BME280;5377;43.276;26.930;2023-08-17T08:43:08;98991.00;;;34.74;48.22
10658;BME280;5377;43.276;26.930;2023-08-17T08:45:36;98991.34;;;35.53;48.10
10658;BME280;5377;43.276;26.930;2023-08-17T08:48:08;98990.53;;;36.02;45.19
10658;BME280;5377;43.276;26.930;2023-08-17T08:50:36;98985.25;;;36.49;45.01
10658;BME280;5377;43.276;26.930;2023-08-17T08:53:03;98989.22;;;36.48;43.31
10658;BME280;5377;43.276;26.930;2023-08-17T08:55:37;98975.38;;;36.55;43.49
10658;BME280;5377;43.276;26.930;2023-08-17T08:58:06;98975.94;;;36.38;42.81
10658;BME280;5377;43.276;26.930;2023-08-17T09:00:33;98967.81;;;36.56;43.14
10658;BME280;5377;43.276;26.930;2023-08-17T09:03:02;98978.28;;;36.36;43.47
10658;BME280;5377;43.276;26.930;2023-08-17T09:05:31;98975.84;;;35.78;43.60
10658;BME280;5377;43.276;26.930;2023-08-17T09:08:00;98974.22;;;35.77;43.56
10658;BME280;5377;43.276;26.930;2023-08-17T09:10:28;98969.75;;;36.52;42.79
10658;BME280;5377;43.276;26.930;2023-08-17T09:12:54;98981.91;;;36.70;42.51
10658;BME280;5377;43.276;26.930;2023-08-17T09:15:21;98956.81;;;36.74;40.74
10658;BME280;5377;43.276;26.930;2023-08-17T09:17:48;98981.25;;;36.47;41.50
10658;BME280;5377;43.276;26.930;2023-08-17T09:20:37;98979.56;;;37.09;41.02
10658;BME280;5377;43.276;26.930;2023-08-17T09:23:09;98968.56;;;37.24;39.86
10658;BME280;5377;43.276;26.930;2023-08-17T09:25:38;98971.44;;;36.60;40.54
10658;BME280;5377;43.276;26.930;2023-08-17T09:28:07;98977.16;;;36.41;41.79
10658;BME280;5377;43.276;26.930;2023-08-17T09:30:49;98973.00;;;36.91;40.53
10658;BME280;5377;43.276;26.930;2023-08-17T09:33:16;98967.66;;;37.12;39.52
10658;BME280;5377;43.276;26.930;2023-08-17T09:35:45;98964.25;;;37.77;39.62
10658;BME280;5377;43.276;26.930;2023-08-17T09:38:11;98952.63;;;38.27;38.74
10658;BME280;5377;43.276;26.930;2023-08-17T09:40:39;98962.22;;;36.56;38.24
10658;BME280;5377;43.276;26.930;2023-08-17T09:43:06;98965.94;;;35.58;39.29
10658;BME280;5377;43.276;26.930;2023-08-17T09:45:33;98965.84;;;35.31;39.54
10658;BME280;5377;43.276;26.930;2023-08-17T09:48:00;98955.41;;;34.83;40.31
10658;BME280;5377;43.276;26.930;2023-08-17T09:50:27;98963.63;;;34.76;42.06
10658;BME280;5377;43.276;26.930;2023-08-17T09:52:55;98964.50;;;34.41;43.23
10658;BME280;5377;43.276;26.930;2023-08-17T09:55:22;98971.19;;;33.86;43.24
10658;BME280;5377;43.276;26.930;2023-08-17T09:57:50;98968.41;;;33.70;43.28
10658;BME280;5377;43.276;26.930;2023-08-17T10:00:18;98965.25;;;33.56;43.10
10658;BME280;5377;43.276;26.930;2023-08-17T10:02:45;98965.91;;;33.49;43.60
10658;BME280;5377;43.276;26.930;2023-08-17T10:05:18;98956.53;;;33.26;43.52
10658;BME280;5377;43.276;26.930;2023-08-17T10:07:47;98966.69;;;33.81;43.15
10658;BME280;5377;43.276;26.930;2023-08-17T10:10:22;98960.41;;;34.74;41.34
10658;BME280;5377;43.276;26.930;2023-08-17T10:12:59;98888.78;;;34.70;40.34
10658;BME280;5377;43.276;26.930;2023-08-17T10:15:29;98945.28;;;34.94;40.67
10658;BME280;5377;43.276;26.930;2023-08-17T10:18:04;98924.19;;;35.61;40.38
10658;BME280;5377;43.276;26.930;2023-08-17T10:20:34;98882.66;;;35.79;40.37
10658;BME280;5377;43.276;26.930;2023-08-17T10:23:06;98946.44;;;36.37;39.92
10658;BME280;5377;43.276;26.930;2023-08-17T10:25:36;98950.28;;;36.29;39.22
10658;BME280;5377;43.276;26.930;2023-08-17T10:28:04;98938.41;;;35.53;38.91
10658;BME280;5377;43.276;26.930;2023-08-17T10:30:33;98938.38;;;35.76;39.86
10658;BME280;5377;43.276;26.930;2023-08-17T10:33:00;98932.78;;;35.49;39.60
10658;BME280;5377;43.276;26.930;2023-08-17T10:35:29;98917.09;;;35.18;38.88
10658;BME280;5377;43.276;26.930;2023-08-17T10:37:58;98948.16;;;35.20;38.83
10658;BME280;5377;43.276;26.930;2023-08-17T10:40:26;98912.34;;;35.19;39.72
10658;BME280;5377;43.276;26.930;2023-08-17T10:42:55;98950.56;;;35.68;38.54
10658;BME280;5377;43.276;26.930;2023-08-17T10:45:26;98933.53;;;36.29;38.12
10658;BME280;5377;43.276;26.930;2023-08-17T10:48:00;98942.38;;;36.65;36.39
10658;BME280;5377;43.276;26.930;2023-08-17T10:50:27;98945.03;;;35.71;37.96
10658;BME280;5377;43.276;26.930;2023-08-17T10:52:54;98933.63;;;36.06;37.99
10658;BME280;5377;43.276;26.930;2023-08-17T10:55:35;98948.03;;;35.59;39.26
10658;BME280;5377;43.276;26.930;2023-08-17T10:58:04;98937.28;;;35.57;38.87
10658;BME280;5377;43.276;26.930;2023-08-17T11:00:33;98944.06;;;36.39;37.78
10658;BME280;5377;43.276;26.930;2023-08-17T11:03:04;98943.19;;;36.05;37.67
10658;BME280;5377;43.276;26.930;2023-08-17T11:05:36;98923.28;;;36.07;38.33
10658;BME280;5377;43.276;26.930;2023-08-17T11:08:02;98946.75;;;35.53;37.97
10658;BME280;5377;43.276;26.930;2023-08-17T11:10:29;98910.78;;;35.71;37.32
10658;BME280;5377;43.276;26.930;2023-08-17T11:12:57;98931.56;;;36.00;37.61
10658;BME280;5377;43.276;26.930;2023-08-17T11:15:35;98923.94;;;35.97;36.45
10658;BME280;5377;43.276;26.930;2023-08-17T11:18:05;98891.75;;;36.66;36.07
10658;BME280;5377;43.276;26.930;2023-08-17T11:20:32;98935.31;;;36.11;36.87
10658;BME280;5377;43.276;26.930;2023-08-17T11:22:59;98907.94;;;36.20;36.31
10658;BME280;5377;43.276;26.930;2023-08-17T11:25:26;98934.41;;;37.00;35.31
10658;BME280;5377;43.276;26.930;2023-08-17T11:27:54;98926.66;;;37.24;35.01
10658;BME280;5377;43.276;26.930;2023-08-17T11:30:21;98911.00;;;37.60;34.49
10658;BME280;5377;43.276;26.930;2023-08-17T11:32:50;98928.44;;;37.42;35.15
10658;BME280;5377;43.276;26.930;2023-08-17T11:35:18;98877.00;;;37.06;35.55
10658;BME280;5377;43.276;26.930;2023-08-17T11:37:45;98898.91;;;37.01;34.73
10658;BME280;5377;43.276;26.930;2023-08-17T11:40:12;98923.59;;;36.95;35.62
10658;BME280;5377;43.276;26.930;2023-08-17T11:42:39;98879.72;;;36.25;35.97
10658;BME280;5377;43.276;26.930;2023-08-17T11:45:06;98892.25;;;36.75;35.27
10658;BME280;5377;43.276;26.930;2023-08-17T11:47:35;98911.84;;;37.16;35.13
10658;BME280;5377;43.276;26.930;2023-08-17T11:50:05;98920.69;;;36.84;34.83
10658;BME280;5377;43.276;26.930;2023-08-17T11:52:33;98910.09;;;37.01;34.59
10658;BME280;5377;43.276;26.930;2023-08-17T11:55:02;98863.88;;;36.70;34.16
10658;BME280;5377;43.276;26.930;2023-08-17T11:57:30;98931.28;;;36.72;35.02
10658;BME280;5377;43.276;26.930;2023-08-17T11:59:57;98901.72;;;36.30;35.54
10658;BME280;5377;43.276;26.930;2023-08-17T12:02:25;98872.03;;;36.82;34.04
10658;BME280;5377;43.276;26.930;2023-08-17T12:04:56;98895.72;;;38.08;33.53
10658;BME280;5377;43.276;26.930;2023-08-17T12:07:24;98847.91;;;38.31;32.43
10658;BME280;5377;43.276;26.930;2023-08-17T12:09:52;98898.63;;;38.19;33.08
10658;BME280;5377;43.276;26.930;2023-08-17T12:12:21;98906.03;;;37.87;33.36
10658;BME280;5377;43.276;26.930;2023-08-17T12:14:50;98862.44;;;36.79;33.52
10658;BME280;5377;43.276;26.930;2023-08-17T12:17:18;98889.63;;;37.85;32.96
10658;BME280;5377;43.276;26.930;2023-08-17T12:19:49;98887.88;;;38.28;32.30
10658;BME280;5377;43.276;26.930;2023-08-17T12:22:16;98844.69;;;38.22;32.21
10658;BME280;5377;43.276;26.930;2023-08-17T12:24:45;98886.88;;;37.96;32.56
10658;BME280;5377;43.276;26.930;2023-08-17T12:27:11;98888.72;;;38.47;32.43
10658;BME280;5377;43.276;26.930;2023-08-17T12:29:46;98876.88;;;39.07;31.60
10658;BME280;5377;43.276;26.930;2023-08-17T12:32:14;98888.09;;;39.10;30.96
10658;BME280;5377;43.276;26.930;2023-08-17T12:34:41;98879.28;;;39.62;30.35
10658;BME280;5377;43.276;26.930;2023-08-17T12:37:08;98851.25;;;39.51;29.88
10658;BME280;5377;43.276;26.930;2023-08-17T12:39:36;98858.47;;;39.27;31.02
10658;BME280;5377;43.276;26.930;2023-08-17T12:42:04;98838.03;;;39.37;29.39
10658;BME280;5377;43.276;26.930;2023-08-17T12:44:31;98874.19;;;40.47;28.94
10658;BME280;5377;43.276;26.930;2023-08-17T12:46:58;98858.25;;;40.27;29.02
10658;BME280;5377;43.276;26.930;2023-08-17T12:49:25;98875.91;;;38.38;29.83
10658;BME280;5377;43.276;26.930;2023-08-17T12:51:52;98857.84;;;37.49;31.17
10658;BME280;5377;43.276;26.930;2023-08-17T12:54:19;98864.31;;;38.36;30.23
10658;BME280;5377;43.276;26.930;2023-08-17T12:56:46;98875.88;;;38.31;30.18
10658;BME280;5377;43.276;26.930;2023-08-17T12:59:14;98874.75;;;38.54;30.14
10658;BME280;5377;43.276;26.930;2023-08-17T13:01:41;98822.94;;;37.25;31.17